Amistad, New Mexico
Current Conditions -  °F | °C
As of 4:53 PM on Friday 24 Oct 2014 (Local Time) from KDHT Reporting Station
Clear Clear  
Wind Chill: 84°   Ceiling: Unl
Heat Index: 84°   Visibility: 10mi
Dew Point: 30°   Wind: 9mph
Humidity: 14%   Direction: 190°S
Pressure: 30.12"   Gusts: NA
Location:  35.92°N, 103.16°W
Report Text: KDHT 242253Z AUTO 19008KT 10SM CLR 29/M01 A3012 RMK AO2 SLP154 T02891011
Loading
Personal Weather Stations






























Interactive Weather Map
Tropical Storm Tracking
New forecast layout! Learn more

10-Day Weather Forecast

Advertisements
Track Severe Weather on mobile